Time;durP1;ratioP1;P1;durP2;ratioP2;P2;SDS_P1;SDS_P2;PMS_P1;PMS_P2;Temp;Humidity;BMP_temperature;BMP_pressure;BME280_temperature;BME280_humidity;BME280_pressure;Samples;Min_cycle;Max_cycle;Signal;HPM_P1;HPM_P2
2023/04/08 20:54:46;;;;;;;107.90;70.20;;;;;;;3.66;76.57;99759.49;102266;1291;635349;-76
2023/04/08 20:57:20;;;;;;;107.70;69.40;;;;;;;3.56;76.41;99761.72;104559;1269;94855;-77
2023/04/08 20:59:51;;;;;;;96.80;64.20;;;;;;;3.52;76.59;99761.69;108148;1258;92153;-72
2023/04/08 21:02:30;;;;;;;94.30;59.90;;;;;;;3.48;76.63;99757.45;105296;1262;107723;-74
2023/04/08 21:04:58;;;;;;;80.20;53.40;;;;;;;3.42;76.70;99761.84;105220;1263;102616;-74
2023/04/08 21:07:32;;;;;;;85.10;55.10;;;;;;;3.35;76.70;99763.45;104905;1263;142471;-73
2023/04/08 21:10:05;;;;;;;78.80;52.70;;;;;;;3.32;76.58;99764.25;105565;1257;94287;-75
2023/04/08 21:12:33;;;;;;;78.20;51.10;;;;;;;3.27;76.80;99767.40;105413;1256;95244;-72
2023/04/08 21:15:01;;;;;;;90.50;58.70;;;;;;;3.19;76.55;99765.52;105245;1256;108493;-76
2023/04/08 21:17:34;;;;;;;87.40;55.60;;;;;;;3.14;76.64;99764.63;106358;1257;102817;-72
2023/04/08 21:20:10;;;;;;;79.00;51.60;;;;;;;3.10;76.96;99763.55;108536;1253;108115;-75
2023/04/08 21:22:44;;;;;;;74.50;48.50;;;;;;;3.04;76.54;99763.89;108559;1254;93211;-75
2023/04/08 21:25:18;;;;;;;93.20;57.80;;;;;;;2.97;76.57;99763.05;108615;1254;93411;-73
2023/04/08 21:27:48;;;;;;;96.60;61.10;;;;;;;2.90;76.47;99760.96;108512;1254;108492;-73
2023/04/08 21:30:22;;;;;;;98.70;57.80;;;;;;;2.88;76.55;99761.20;108547;1254;102241;-72
2023/04/08 21:32:58;;;;;;;108.80;67.20;;;;;;;2.85;76.71;99762.00;105049;1270;105816;-71
2023/04/08 21:35:27;;;;;;;137.20;80.50;;;;;;;2.82;76.42;99756.30;104920;1260;95250;-74
2023/04/08 21:37:55;;;;;;;165.80;93.00;;;;;;;2.77;76.59;99754.70;105227;1259;95839;-75
2023/04/08 21:40:23;;;;;;;150.90;87.60;;;;;;;2.73;76.38;99756.41;105488;1257;108536;-72
2023/04/08 21:42:51;;;;;;;169.00;96.60;;;;;;;2.67;76.80;99754.99;105137;1253;102982;-73
2023/04/08 21:45:19;;;;;;;165.80;94.30;;;;;;;2.65;76.59;99753.83;106172;1257;106730;-72
2023/04/08 21:47:49;;;;;;;165.20;95.40;;;;;;;2.60;76.35;99753.80;105215;1254;95262;-73
2023/04/08 21:50:17;;;;;;;152.70;94.40;;;;;;;2.53;76.58;99749.95;105032;1257;95745;-71
2023/04/08 21:52:46;;;;;;;151.20;87.40;;;;;;;2.49;76.51;99749.02;105301;1253;107675;-72
2023/04/08 21:55:13;;;;;;;150.00;86.50;;;;;;;2.48;76.81;99749.59;105286;1257;102272;-72
2023/04/08 21:57:41;;;;;;;146.00;89.20;;;;;;;2.44;76.62;99754.41;105186;1254;108065;-72
2023/04/08 22:00:12;;;;;;;150.50;86.50;;;;;;;2.41;76.81;99749.63;104929;1277;95346;-72
2023/04/08 22:02:40;;;;;;;172.20;94.70;;;;;;;2.37;76.74;99749.90;105202;1256;95691;-72
2023/04/08 22:05:09;;;;;;;154.10;87.30;;;;;;;2.35;76.84;99745.76;105480;1267;108112;-72
2023/04/08 22:07:37;;;;;;;179.90;90.40;;;;;;;2.33;76.61;99745.12;105222;1256;101850;-72
2023/04/08 22:10:05;;;;;;;162.50;87.40;;;;;;;2.30;76.82;99746.59;105411;1252;107600;-74
2023/04/08 22:12:33;;;;;;;146.50;83.30;;;;;;;2.26;76.70;99750.20;106908;1256;95257;-73
2023/04/08 22:15:02;;;;;;;149.30;84.20;;;;;;;2.19;76.50;99748.80;105337;1256;95745;-73
2023/04/08 22:17:30;;;;;;;143.20;84.20;;;;;;;2.15;76.64;99749.24;105223;1257;108234;-72
2023/04/08 22:19:58;;;;;;;145.70;81.30;;;;;;;2.13;76.72;99745.48;105345;1253;102206;-72
2023/04/08 22:22:26;;;;;;;133.90;79.50;;;;;;;2.06;76.72;99745.29;105481;1254;106767;-77
2023/04/08 22:24:54;;;;;;;163.20;96.80;;;;;;;2.00;76.53;99744.42;105314;1253;95625;-72
2023/04/08 22:27:22;;;;;;;163.90;102.10;;;;;;;1.92;76.70;99742.16;108743;1252;93207;-72
2023/04/08 22:29:50;;;;;;;169.00;99.80;;;;;;;1.93;77.09;99748.09;108735;1252;108540;-71
2023/04/08 22:32:18;;;;;;;233.20;109.40;;;;;;;1.96;76.67;99749.25;106640;1253;102385;-72
2023/04/08 22:34:46;;;;;;;276.80;100.20;;;;;;;1.99;76.98;99752.50;108604;1252;107650;-72
2023/04/08 22:37:13;;;;;;;264.90;92.30;;;;;;;1.99;76.69;99750.92;108717;1251;92969;-73
2023/04/08 22:39:41;;;;;;;228.00;84.20;;;;;;;2.00;76.67;99752.27;108785;1251;93021;-74
2023/04/08 22:42:09;;;;;;;311.10;101.10;;;;;;;1.99;76.64;99755.11;106123;1255;108009;-72
2023/04/08 22:44:38;;;;;;;266.10;99.40;;;;;;;2.00;76.75;99755.26;105332;1253;102271;-72
2023/04/08 22:47:05;;;;;;;240.00;88.70;;;;;;;2.01;76.83;99756.65;105452;1256;107258;-73
2023/04/08 22:49:33;;;;;;;239.90;85.70;;;;;;;1.98;76.87;99759.86;105356;1255;95234;-72
2023/04/08 22:52:01;;;;;;;264.40;88.00;;;;;;;1.97;76.75;99759.56;105385;1253;95779;-72
2023/04/08 22:54:29;;;;;;;254.30;79.80;;;;;;;1.94;76.94;99759.60;105375;1256;109985;-72
2023/04/08 22:56:57;;;;;;;254.70;81.40;;;;;;;1.90;76.78;99764.96;105318;1250;102428;-76
2023/04/08 22:59:25;;;;;;;265.30;77.40;;;;;;;1.89;77.02;99763.23;105432;1253;107102;-72
2023/04/08 23:01:54;;;;;;;279.90;80.50;;;;;;;1.92;76.94;99757.21;105548;1256;95297;-71
2023/04/08 23:04:22;;;;;;;313.70;80.20;;;;;;;1.91;77.10;99754.61;105474;1249;95781;-75
2023/04/08 23:06:50;;;;;;;298.30;83.70;;;;;;;1.92;77.16;99751.61;105429;1252;108547;-72
2023/04/08 23:09:19;;;;;;;254.40;81.00;;;;;;;1.96;77.07;99744.70;105247;1251;102042;-72
2023/04/08 23:11:47;;;;;;;219.60;85.00;;;;;;;1.97;77.11;99748.88;105410;1255;107080;-71
2023/04/08 23:14:15;;;;;;;218.40;87.80;;;;;;;1.95;76.99;99745.08;105437;1256;95179;-81
2023/04/08 23:16:44;;;;;;;221.80;88.50;;;;;;;1.91;77.12;99742.36;105377;1253;96229;-72
2023/04/08 23:19:12;;;;;;;210.10;80.50;;;;;;;1.89;77.11;99741.37;105496;1256;108528;-72
2023/04/08 23:21:40;;;;;;;183.90;75.90;;;;;;;1.88;76.72;99739.83;105511;1255;102165;-73
2023/04/08 23:24:09;;;;;;;176.00;75.30;;;;;;;1.86;77.15;99736.73;105173;1258;107602;-75
2023/04/08 23:26:37;;;;;;;147.50;71.00;;;;;;;1.86;77.24;99734.11;105355;1253;95296;-74
2023/04/08 23:29:05;;;;;;;155.20;72.50;;;;;;;1.88;77.20;99733.70;105448;1253;95753;-72
2023/04/08 23:31:33;;;;;;;141.30;68.70;;;;;;;1.91;77.14;99727.34;105579;1255;108551;-72
2023/04/08 23:34:02;;;;;;;128.00;69.30;;;;;;;1.90;77.21;99725.95;105411;1256;102267;-72
2023/04/08 23:36:30;;;;;;;134.00;71.70;;;;;;;1.90;76.91;99721.77;105251;1264;109699;-72
2023/04/08 23:38:58;;;;;;;117.00;66.30;;;;;;;1.91;77.05;99719.81;105604;1257;95260;-73
2023/04/08 23:41:26;;;;;;;122.10;73.20;;;;;;;1.85;77.17;99723.30;105593;1253;95718;-72
2023/04/08 23:43:54;;;;;;;121.40;71.80;;;;;;;1.80;76.99;99725.70;105420;1252;108238;-72
2023/04/08 23:46:25;;;;;;;118.60;71.20;;;;;;;1.75;77.10;99725.98;105514;1252;101627;-72
2023/04/08 23:48:53;;;;;;;128.60;76.80;;;;;;;1.68;76.79;99729.32;105520;1253;107481;-73
2023/04/08 23:51:21;;;;;;;142.90;84.00;;;;;;;1.67;76.85;99727.43;105436;1256;95327;-73
2023/04/08 23:53:50;;;;;;;142.80;86.40;;;;;;;1.68;77.32;99721.29;105586;1255;95469;-75
2023/04/08 23:56:19;;;;;;;152.00;89.30;;;;;;;1.65;77.04;99721.52;105321;1253;108084;-73
2023/04/08 23:58:47;;;;;;;141.00;82.00;;;;;;;1.65;77.09;99722.57;105474;1270;102274;-73
